sensor_id;sensor_type;location;lat;lon;timestamp;P1;durP1;ratioP1;P2;durP2;ratioP2
25449;SDS011;13371;52.080;5.624;2022-12-18T00:02:14;64.60;;;22.40;;
25449;SDS011;13371;52.080;5.624;2022-12-18T00:04:39;67.22;;;24.13;;
25449;SDS011;13371;52.080;5.624;2022-12-18T00:07:05;69.25;;;24.08;;
25449;SDS011;13371;52.080;5.624;2022-12-18T00:09:30;61.70;;;22.40;;
25449;SDS011;13371;52.080;5.624;2022-12-18T00:11:56;56.65;;;20.27;;
25449;SDS011;13371;52.080;5.624;2022-12-18T00:14:22;58.80;;;23.48;;
25449;SDS011;13371;52.080;5.624;2022-12-18T00:16:47;63.33;;;24.85;;
25449;SDS011;13371;52.080;5.624;2022-12-18T00:19:13;60.53;;;22.90;;
25449;SDS011;13371;52.080;5.624;2022-12-18T00:21:39;64.18;;;23.17;;
25449;SDS011;13371;52.080;5.624;2022-12-18T00:24:05;65.85;;;24.98;;
25449;SDS011;13371;52.080;5.624;2022-12-18T00:26:32;61.25;;;22.23;;
25449;SDS011;13371;52.080;5.624;2022-12-18T00:28:59;57.00;;;22.52;;
25449;SDS011;13371;52.080;5.624;2022-12-18T00:31:25;66.82;;;23.17;;
25449;SDS011;13371;52.080;5.624;2022-12-18T00:33:53;71.68;;;25.50;;
25449;SDS011;13371;52.080;5.624;2022-12-18T00:36:21;60.28;;;24.50;;
25449;SDS011;13371;52.080;5.624;2022-12-18T00:38:55;58.22;;;23.02;;
25449;SDS011;13371;52.080;5.624;2022-12-18T00:41:22;62.75;;;22.20;;
25449;SDS011;13371;52.080;5.624;2022-12-18T00:44:07;61.85;;;22.30;;
25449;SDS011;13371;52.080;5.624;2022-12-18T00:46:35;69.85;;;24.25;;
25449;SDS011;13371;52.080;5.624;2022-12-18T00:49:01;62.60;;;22.35;;
25449;SDS011;13371;52.080;5.624;2022-12-18T00:51:27;57.42;;;21.58;;
25449;SDS011;13371;52.080;5.624;2022-12-18T00:53:52;61.92;;;23.63;;
25449;SDS011;13371;52.080;5.624;2022-12-18T00:56:18;79.07;;;23.40;;
25449;SDS011;13371;52.080;5.624;2022-12-18T00:58:47;62.08;;;22.10;;
25449;SDS011;13371;52.080;5.624;2022-12-18T01:01:13;62.70;;;22.77;;
25449;SDS011;13371;52.080;5.624;2022-12-18T01:03:39;65.25;;;23.55;;
25449;SDS011;13371;52.080;5.624;2022-12-18T01:06:05;63.50;;;22.77;;
25449;SDS011;13371;52.080;5.624;2022-12-18T01:08:35;58.35;;;22.48;;
25449;SDS011;13371;52.080;5.624;2022-12-18T01:11:06;49.55;;;19.75;;
25449;SDS011;13371;52.080;5.624;2022-12-18T01:13:33;61.65;;;21.85;;
25449;SDS011;13371;52.080;5.624;2022-12-18T01:15:59;59.40;;;22.77;;
25449;SDS011;13371;52.080;5.624;2022-12-18T01:18:25;53.38;;;20.50;;
25449;SDS011;13371;52.080;5.624;2022-12-18T01:20:50;52.53;;;21.20;;
25449;SDS011;13371;52.080;5.624;2022-12-18T01:23:16;63.95;;;20.92;;
25449;SDS011;13371;52.080;5.624;2022-12-18T01:25:41;52.78;;;19.60;;
25449;SDS011;13371;52.080;5.624;2022-12-18T01:28:07;54.40;;;19.73;;
25449;SDS011;13371;52.080;5.624;2022-12-18T01:30:32;61.53;;;21.80;;
25449;SDS011;13371;52.080;5.624;2022-12-18T01:32:58;50.47;;;19.35;;
25449;SDS011;13371;52.080;5.624;2022-12-18T01:35:24;50.83;;;19.90;;
25449;SDS011;13371;52.080;5.624;2022-12-18T01:37:53;59.58;;;19.95;;
25449;SDS011;13371;52.080;5.624;2022-12-18T01:40:19;54.92;;;20.02;;
25449;SDS011;13371;52.080;5.624;2022-12-18T01:42:48;49.92;;;19.92;;
25449;SDS011;13371;52.080;5.624;2022-12-18T01:47:47;47.15;;;21.13;;
25449;SDS011;13371;52.080;5.624;2022-12-18T01:50:17;48.67;;;19.13;;
25449;SDS011;13371;52.080;5.624;2022-12-18T01:52:50;50.93;;;19.83;;
25449;SDS011;13371;52.080;5.624;2022-12-18T01:55:20;43.03;;;18.58;;
25449;SDS011;13371;52.080;5.624;2022-12-18T01:57:51;44.92;;;17.85;;
25449;SDS011;13371;52.080;5.624;2022-12-18T02:00:20;48.40;;;18.13;;
25449;SDS011;13371;52.080;5.624;2022-12-18T02:02:46;49.88;;;19.20;;
25449;SDS011;13371;52.080;5.624;2022-12-18T02:05:14;47.13;;;19.25;;
25449;SDS011;13371;52.080;5.624;2022-12-18T02:07:58;46.05;;;17.63;;
25449;SDS011;13371;52.080;5.624;2022-12-18T02:18:45;51.75;;;17.25;;
25449;SDS011;13371;52.080;5.624;2022-12-18T02:21:27;46.25;;;17.85;;
25449;SDS011;13371;52.080;5.624;2022-12-18T02:24:24;49.80;;;18.00;;
25449;SDS011;13371;52.080;5.624;2022-12-18T02:27:01;43.00;;;17.35;;
25449;SDS011;13371;52.080;5.624;2022-12-18T02:29:52;44.47;;;17.73;;
25449;SDS011;13371;52.080;5.624;2022-12-18T02:32:22;43.70;;;17.67;;
25449;SDS011;13371;52.080;5.624;2022-12-18T02:34:52;44.75;;;18.77;;
25449;SDS011;13371;52.080;5.624;2022-12-18T02:37:21;37.53;;;16.88;;
25449;SDS011;13371;52.080;5.624;2022-12-18T02:39:48;44.25;;;16.15;;
25449;SDS011;13371;52.080;5.624;2022-12-18T02:42:14;36.67;;;16.10;;
25449;SDS011;13371;52.080;5.624;2022-12-18T02:44:42;40.70;;;17.52;;
25449;SDS011;13371;52.080;5.624;2022-12-18T02:47:10;40.90;;;16.05;;
25449;SDS011;13371;52.080;5.624;2022-12-18T02:49:44;34.97;;;14.93;;
25449;SDS011;13371;52.080;5.624;2022-12-18T02:52:24;31.77;;;13.82;;
25449;SDS011;13371;52.080;5.624;2022-12-18T02:57:50;39.70;;;16.73;;
25449;SDS011;13371;52.080;5.624;2022-12-18T03:00:22;38.78;;;15.80;;
25449;SDS011;13371;52.080;5.624;2022-12-18T03:03:10;35.40;;;15.48;;
25449;SDS011;13371;52.080;5.624;2022-12-18T03:05:55;38.55;;;16.45;;
25449;SDS011;13371;52.080;5.624;2022-12-18T03:08:33;32.30;;;14.65;;
25449;SDS011;13371;52.080;5.624;2022-12-18T03:11:07;40.75;;;16.33;;
25449;SDS011;13371;52.080;5.624;2022-12-18T03:16:15;36.13;;;14.43;;
25449;SDS011;13371;52.080;5.624;2022-12-18T03:18:46;29.55;;;14.18;;
25449;SDS011;13371;52.080;5.624;2022-12-18T03:21:19;40.47;;;14.73;;
25449;SDS011;13371;52.080;5.624;2022-12-18T03:23:49;41.33;;;16.13;;
25449;SDS011;13371;52.080;5.624;2022-12-18T03:26:18;41.92;;;16.75;;
25449;SDS011;13371;52.080;5.624;2022-12-18T03:28:49;31.20;;;14.27;;
25449;SDS011;13371;52.080;5.624;2022-12-18T03:31:18;35.95;;;15.05;;
25449;SDS011;13371;52.080;5.624;2022-12-18T03:33:47;32.28;;;15.07;;
25449;SDS011;13371;52.080;5.624;2022-12-18T03:36:18;29.92;;;13.88;;
25449;SDS011;13371;52.080;5.624;2022-12-18T03:38:43;36.60;;;16.02;;
25449;SDS011;13371;52.080;5.624;2022-12-18T03:44:09;32.28;;;14.48;;
25449;SDS011;13371;52.080;5.624;2022-12-18T03:46:53;29.83;;;13.43;;
25449;SDS011;13371;52.080;5.624;2022-12-18T03:49:33;31.77;;;13.50;;
25449;SDS011;13371;52.080;5.624;2022-12-18T03:52:15;31.13;;;14.93;;
25449;SDS011;13371;52.080;5.624;2022-12-18T03:54:50;31.25;;;14.07;;
25449;SDS011;13371;52.080;5.624;2022-12-18T03:57:21;34.13;;;13.45;;
25449;SDS011;13371;52.080;5.624;2022-12-18T03:59:51;33.88;;;14.43;;
25449;SDS011;13371;52.080;5.624;2022-12-18T04:02:24;33.50;;;13.82;;
25449;SDS011;13371;52.080;5.624;2022-12-18T04:04:53;37.58;;;15.63;;
25449;SDS011;13371;52.080;5.624;2022-12-18T04:07:23;32.03;;;13.80;;
25449;SDS011;13371;52.080;5.624;2022-12-18T04:09:50;32.22;;;14.38;;
25449;SDS011;13371;52.080;5.624;2022-12-18T04:12:20;31.48;;;13.88;;
25449;SDS011;13371;52.080;5.624;2022-12-18T04:14:48;33.17;;;14.57;;
25449;SDS011;13371;52.080;5.624;2022-12-18T04:17:14;36.40;;;14.68;;
25449;SDS011;13371;52.080;5.624;2022-12-18T04:19:39;28.30;;;13.30;;
25449;SDS011;13371;52.080;5.624;2022-12-18T04:22:05;39.10;;;14.40;;
25449;SDS011;13371;52.080;5.624;2022-12-18T04:24:30;30.17;;;13.77;;
25449;SDS011;13371;52.080;5.624;2022-12-18T04:26:56;33.17;;;14.38;;
25449;SDS011;13371;52.080;5.624;2022-12-18T04:29:21;28.05;;;13.90;;
25449;SDS011;13371;52.080;5.624;2022-12-18T04:31:47;27.85;;;13.07;;
25449;SDS011;13371;52.080;5.624;2022-12-18T04:34:12;31.13;;;13.32;;
25449;SDS011;13371;52.080;5.624;2022-12-18T04:36:38;28.77;;;14.70;;
25449;SDS011;13371;52.080;5.624;2022-12-18T04:39:04;30.73;;;14.85;;
25449;SDS011;13371;52.080;5.624;2022-12-18T04:41:29;28.67;;;13.70;;
25449;SDS011;13371;52.080;5.624;2022-12-18T04:43:55;30.67;;;13.70;;
25449;SDS011;13371;52.080;5.624;2022-12-18T04:46:20;30.38;;;14.07;;
25449;SDS011;13371;52.080;5.624;2022-12-18T04:48:46;28.05;;;13.10;;
25449;SDS011;13371;52.080;5.624;2022-12-18T04:51:11;27.73;;;12.32;;
25449;SDS011;13371;52.080;5.624;2022-12-18T04:53:37;25.63;;;12.48;;
25449;SDS011;13371;52.080;5.624;2022-12-18T04:58:33;27.08;;;12.40;;
25449;SDS011;13371;52.080;5.624;2022-12-18T05:00:59;26.73;;;12.38;;
25449;SDS011;13371;52.080;5.624;2022-12-18T05:03:25;27.88;;;12.07;;
25449;SDS011;13371;52.080;5.624;2022-12-18T05:05:50;26.23;;;12.57;;
25449;SDS011;13371;52.080;5.624;2022-12-18T05:08:17;24.65;;;11.10;;
25449;SDS011;13371;52.080;5.624;2022-12-18T05:10:42;24.95;;;11.35;;
25449;SDS011;13371;52.080;5.624;2022-12-18T05:13:08;27.70;;;11.52;;
25449;SDS011;13371;52.080;5.624;2022-12-18T05:15:34;25.50;;;11.35;;
25449;SDS011;13371;52.080;5.624;2022-12-18T05:18:00;23.15;;;11.50;;
25449;SDS011;13371;52.080;5.624;2022-12-18T05:20:27;23.83;;;10.90;;
25449;SDS011;13371;52.080;5.624;2022-12-18T05:22:53;27.48;;;12.40;;
25449;SDS011;13371;52.080;5.624;2022-12-18T05:25:19;25.65;;;11.35;;
25449;SDS011;13371;52.080;5.624;2022-12-18T05:27:46;25.20;;;12.13;;
25449;SDS011;13371;52.080;5.624;2022-12-18T05:30:12;26.90;;;12.65;;
25449;SDS011;13371;52.080;5.624;2022-12-18T05:32:38;23.85;;;11.98;;
25449;SDS011;13371;52.080;5.624;2022-12-18T05:35:04;25.30;;;11.52;;
25449;SDS011;13371;52.080;5.624;2022-12-18T05:37:31;24.30;;;10.68;;
25449;SDS011;13371;52.080;5.624;2022-12-18T05:39:57;27.60;;;11.60;;
25449;SDS011;13371;52.080;5.624;2022-12-18T05:42:22;21.75;;;11.05;;
25449;SDS011;13371;52.080;5.624;2022-12-18T05:44:48;26.85;;;11.27;;
25449;SDS011;13371;52.080;5.624;2022-12-18T05:47:14;21.88;;;11.90;;
25449;SDS011;13371;52.080;5.624;2022-12-18T05:49:39;22.42;;;10.60;;
25449;SDS011;13371;52.080;5.624;2022-12-18T05:52:05;21.73;;;10.55;;
25449;SDS011;13371;52.080;5.624;2022-12-18T05:54:30;22.70;;;11.63;;
25449;SDS011;13371;52.080;5.624;2022-12-18T05:56:56;20.33;;;10.45;;
25449;SDS011;13371;52.080;5.624;2022-12-18T05:59:22;22.02;;;10.80;;
25449;SDS011;13371;52.080;5.624;2022-12-18T06:01:48;23.25;;;11.45;;
25449;SDS011;13371;52.080;5.624;2022-12-18T06:04:13;23.55;;;11.88;;
25449;SDS011;13371;52.080;5.624;2022-12-18T06:06:39;19.85;;;10.10;;
25449;SDS011;13371;52.080;5.624;2022-12-18T06:09:04;24.15;;;11.07;;
25449;SDS011;13371;52.080;5.624;2022-12-18T06:11:33;19.25;;;9.27;;
25449;SDS011;13371;52.080;5.624;2022-12-18T06:13:59;21.52;;;10.13;;
25449;SDS011;13371;52.080;5.624;2022-12-18T06:16:26;20.30;;;10.43;;
25449;SDS011;13371;52.080;5.624;2022-12-18T06:18:52;24.42;;;10.65;;
25449;SDS011;13371;52.080;5.624;2022-12-18T06:21:18;23.27;;;10.68;;
25449;SDS011;13371;52.080;5.624;2022-12-18T06:23:43;24.35;;;12.07;;
25449;SDS011;13371;52.080;5.624;2022-12-18T06:26:10;21.40;;;10.65;;
25449;SDS011;13371;52.080;5.624;2022-12-18T06:28:36;19.50;;;10.75;;
25449;SDS011;13371;52.080;5.624;2022-12-18T06:31:05;22.38;;;10.60;;
25449;SDS011;13371;52.080;5.624;2022-12-18T06:33:32;20.80;;;9.73;;
25449;SDS011;13371;52.080;5.624;2022-12-18T06:36:02;23.08;;;10.15;;
25449;SDS011;13371;52.080;5.624;2022-12-18T06:38:29;21.95;;;9.88;;
25449;SDS011;13371;52.080;5.624;2022-12-18T06:40:56;21.95;;;10.75;;
25449;SDS011;13371;52.080;5.624;2022-12-18T06:43:22;18.42;;;10.48;;
25449;SDS011;13371;52.080;5.624;2022-12-18T06:45:47;24.42;;;10.40;;
25449;SDS011;13371;52.080;5.624;2022-12-18T06:48:17;17.67;;;9.82;;
25449;SDS011;13371;52.080;5.624;2022-12-18T06:50:44;23.45;;;10.75;;
25449;SDS011;13371;52.080;5.624;2022-12-18T06:53:10;19.05;;;9.52;;
25449;SDS011;13371;52.080;5.624;2022-12-18T06:55:36;19.10;;;9.20;;
25449;SDS011;13371;52.080;5.624;2022-12-18T06:58:01;18.48;;;10.60;;
25449;SDS011;13371;52.080;5.624;2022-12-18T07:00:27;24.88;;;10.82;;
25449;SDS011;13371;52.080;5.624;2022-12-18T07:02:52;18.83;;;9.80;;
25449;SDS011;13371;52.080;5.624;2022-12-18T07:05:18;20.27;;;10.10;;
25449;SDS011;13371;52.080;5.624;2022-12-18T07:07:43;20.38;;;10.93;;
25449;SDS011;13371;52.080;5.624;2022-12-18T07:10:09;23.50;;;11.40;;
25449;SDS011;13371;52.080;5.624;2022-12-18T07:12:35;23.13;;;12.02;;
25449;SDS011;13371;52.080;5.624;2022-12-18T07:15:00;22.30;;;11.27;;
25449;SDS011;13371;52.080;5.624;2022-12-18T07:17:26;22.15;;;10.25;;
25449;SDS011;13371;52.080;5.624;2022-12-18T07:19:52;21.60;;;10.32;;
25449;SDS011;13371;52.080;5.624;2022-12-18T07:22:17;21.10;;;11.35;;
25449;SDS011;13371;52.080;5.624;2022-12-18T07:24:43;26.45;;;11.63;;
25449;SDS011;13371;52.080;5.624;2022-12-18T07:27:08;20.73;;;11.05;;
25449;SDS011;13371;52.080;5.624;2022-12-18T07:29:34;24.60;;;11.50;;
25449;SDS011;13371;52.080;5.624;2022-12-18T07:31:59;22.92;;;11.38;;
25449;SDS011;13371;52.080;5.624;2022-12-18T07:34:25;23.35;;;12.32;;
25449;SDS011;13371;52.080;5.624;2022-12-18T07:36:51;15.07;;;8.57;;
25449;SDS011;13371;52.080;5.624;2022-12-18T07:39:16;28.88;;;12.25;;
25449;SDS011;13371;52.080;5.624;2022-12-18T07:41:42;23.25;;;11.52;;
25449;SDS011;13371;52.080;5.624;2022-12-18T07:44:11;18.63;;;9.70;;
25449;SDS011;13371;52.080;5.624;2022-12-18T07:46:37;24.95;;;10.82;;
25449;SDS011;13371;52.080;5.624;2022-12-18T07:49:03;21.80;;;11.75;;
25449;SDS011;13371;52.080;5.624;2022-12-18T07:51:29;25.95;;;12.50;;
25449;SDS011;13371;52.080;5.624;2022-12-18T07:53:54;21.50;;;11.38;;
25449;SDS011;13371;52.080;5.624;2022-12-18T07:56:21;22.38;;;11.60;;
25449;SDS011;13371;52.080;5.624;2022-12-18T07:58:47;20.48;;;10.52;;
25449;SDS011;13371;52.080;5.624;2022-12-18T08:01:12;23.48;;;11.75;;
25449;SDS011;13371;52.080;5.624;2022-12-18T08:03:39;19.35;;;10.13;;
25449;SDS011;13371;52.080;5.624;2022-12-18T08:06:06;22.20;;;11.55;;
25449;SDS011;13371;52.080;5.624;2022-12-18T08:08:33;9.65;;;5.70;;
25449;SDS011;13371;52.080;5.624;2022-12-18T08:10:59;20.83;;;10.40;;
25449;SDS011;13371;52.080;5.624;2022-12-18T08:13:25;19.88;;;11.00;;
25449;SDS011;13371;52.080;5.624;2022-12-18T08:15:57;19.38;;;11.65;;
25449;SDS011;13371;52.080;5.624;2022-12-18T08:18:27;18.08;;;9.50;;
25449;SDS011;13371;52.080;5.624;2022-12-18T08:20:54;22.60;;;11.70;;
25449;SDS011;13371;52.080;5.624;2022-12-18T08:23:20;22.17;;;10.38;;
25449;SDS011;13371;52.080;5.624;2022-12-18T08:25:45;12.57;;;5.85;;
25449;SDS011;13371;52.080;5.624;2022-12-18T08:28:11;22.67;;;9.98;;
25449;SDS011;13371;52.080;5.624;2022-12-18T08:30:36;20.15;;;11.23;;
25449;SDS011;13371;52.080;5.624;2022-12-18T08:33:02;22.85;;;10.10;;
25449;SDS011;13371;52.080;5.624;2022-12-18T08:35:28;15.85;;;7.85;;
25449;SDS011;13371;52.080;5.624;2022-12-18T08:37:53;20.27;;;10.32;;
25449;SDS011;13371;52.080;5.624;2022-12-18T08:40:19;21.58;;;10.68;;
25449;SDS011;13371;52.080;5.624;2022-12-18T08:42:44;18.67;;;9.30;;
25449;SDS011;13371;52.080;5.624;2022-12-18T08:45:28;20.63;;;9.93;;
25449;SDS011;13371;52.080;5.624;2022-12-18T08:47:54;18.40;;;9.38;;
25449;SDS011;13371;52.080;5.624;2022-12-18T08:50:20;17.02;;;8.35;;
25449;SDS011;13371;52.080;5.624;2022-12-18T08:52:45;17.52;;;9.35;;
25449;SDS011;13371;52.080;5.624;2022-12-18T08:55:11;16.63;;;8.20;;
25449;SDS011;13371;52.080;5.624;2022-12-18T08:57:36;16.42;;;8.68;;
25449;SDS011;13371;52.080;5.624;2022-12-18T09:00:03;19.63;;;9.85;;
25449;SDS011;13371;52.080;5.624;2022-12-18T09:02:29;19.27;;;9.52;;
25449;SDS011;13371;52.080;5.624;2022-12-18T09:04:55;16.65;;;7.70;;
25449;SDS011;13371;52.080;5.624;2022-12-18T09:07:20;18.10;;;8.50;;
25449;SDS011;13371;52.080;5.624;2022-12-18T09:09:46;18.35;;;8.93;;
25449;SDS011;13371;52.080;5.624;2022-12-18T09:12:11;16.05;;;8.18;;
25449;SDS011;13371;52.080;5.624;2022-12-18T09:14:37;16.58;;;8.73;;
25449;SDS011;13371;52.080;5.624;2022-12-18T09:17:03;17.73;;;8.63;;
25449;SDS011;13371;52.080;5.624;2022-12-18T09:19:28;14.60;;;8.05;;
25449;SDS011;13371;52.080;5.624;2022-12-18T09:21:54;17.13;;;8.13;;
25449;SDS011;13371;52.080;5.624;2022-12-18T09:24:22;15.07;;;7.35;;
25449;SDS011;13371;52.080;5.624;2022-12-18T09:26:48;13.93;;;7.50;;
25449;SDS011;13371;52.080;5.624;2022-12-18T09:29:17;15.50;;;7.53;;
25449;SDS011;13371;52.080;5.624;2022-12-18T09:31:43;20.02;;;8.10;;
25449;SDS011;13371;52.080;5.624;2022-12-18T09:34:08;18.02;;;8.52;;
25449;SDS011;13371;52.080;5.624;2022-12-18T09:36:34;14.20;;;7.40;;
25449;SDS011;13371;52.080;5.624;2022-12-18T09:39:00;16.13;;;7.65;;
25449;SDS011;13371;52.080;5.624;2022-12-18T09:46:43;11.98;;;6.68;;
25449;SDS011;13371;52.080;5.624;2022-12-18T09:49:17;14.95;;;7.15;;
25449;SDS011;13371;52.080;5.624;2022-12-18T09:52:00;14.93;;;8.02;;
25449;SDS011;13371;52.080;5.624;2022-12-18T09:54:38;15.20;;;7.55;;
25449;SDS011;13371;52.080;5.624;2022-12-18T09:57:14;13.35;;;6.43;;
25449;SDS011;13371;52.080;5.624;2022-12-18T09:59:46;14.27;;;6.80;;
25449;SDS011;13371;52.080;5.624;2022-12-18T10:02:26;13.73;;;6.78;;
25449;SDS011;13371;52.080;5.624;2022-12-18T10:05:10;14.90;;;7.32;;
25449;SDS011;13371;52.080;5.624;2022-12-18T10:16:09;16.63;;;7.30;;
25449;SDS011;13371;52.080;5.624;2022-12-18T10:21:42;13.45;;;7.13;;
25449;SDS011;13371;52.080;5.624;2022-12-18T10:24:20;14.52;;;7.15;;
25449;SDS011;13371;52.080;5.624;2022-12-18T10:27:12;15.18;;;6.80;;
25449;SDS011;13371;52.080;5.624;2022-12-18T10:29:40;18.75;;;8.13;;
25449;SDS011;13371;52.080;5.624;2022-12-18T10:32:08;14.32;;;6.88;;
25449;SDS011;13371;52.080;5.624;2022-12-18T10:34:46;17.17;;;6.10;;
25449;SDS011;13371;52.080;5.624;2022-12-18T10:37:17;13.73;;;6.85;;
25449;SDS011;13371;52.080;5.624;2022-12-18T10:39:46;14.20;;;6.85;;
25449;SDS011;13371;52.080;5.624;2022-12-18T10:42:29;15.18;;;7.00;;
25449;SDS011;13371;52.080;5.624;2022-12-18T10:45:16;15.55;;;7.00;;
25449;SDS011;13371;52.080;5.624;2022-12-18T10:47:45;14.60;;;6.82;;
25449;SDS011;13371;52.080;5.624;2022-12-18T10:50:32;15.93;;;7.40;;
25449;SDS011;13371;52.080;5.624;2022-12-18T10:53:03;16.05;;;6.75;;
25449;SDS011;13371;52.080;5.624;2022-12-18T10:55:31;13.30;;;6.40;;
25449;SDS011;13371;52.080;5.624;2022-12-18T10:58:21;15.02;;;7.18;;
25449;SDS011;13371;52.080;5.624;2022-12-18T11:06:26;12.55;;;6.18;;
25449;SDS011;13371;52.080;5.624;2022-12-18T11:08:59;15.95;;;6.70;;
25449;SDS011;13371;52.080;5.624;2022-12-18T11:11:25;13.40;;;7.00;;
25449;SDS011;13371;52.080;5.624;2022-12-18T11:13:54;15.10;;;7.15;;
25449;SDS011;13371;52.080;5.624;2022-12-18T11:16:22;14.30;;;6.60;;
25449;SDS011;13371;52.080;5.624;2022-12-18T11:18:48;13.75;;;6.55;;
25449;SDS011;13371;52.080;5.624;2022-12-18T11:21:14;16.30;;;7.78;;
25449;SDS011;13371;52.080;5.624;2022-12-18T11:23:50;16.05;;;8.25;;
25449;SDS011;13371;52.080;5.624;2022-12-18T11:26:18;18.88;;;8.98;;
25449;SDS011;13371;52.080;5.624;2022-12-18T11:29:07;15.70;;;7.18;;
25449;SDS011;13371;52.080;5.624;2022-12-18T11:31:34;12.38;;;6.25;;
25449;SDS011;13371;52.080;5.624;2022-12-18T11:34:00;13.98;;;6.93;;
25449;SDS011;13371;52.080;5.624;2022-12-18T11:36:45;15.75;;;7.35;;
25449;SDS011;13371;52.080;5.624;2022-12-18T11:39:17;13.55;;;7.22;;
25449;SDS011;13371;52.080;5.624;2022-12-18T11:41:57;17.70;;;8.52;;
25449;SDS011;13371;52.080;5.624;2022-12-18T11:44:48;15.88;;;7.55;;
25449;SDS011;13371;52.080;5.624;2022-12-18T11:47:31;22.38;;;7.20;;
25449;SDS011;13371;52.080;5.624;2022-12-18T11:50:19;15.07;;;6.88;;
25449;SDS011;13371;52.080;5.624;2022-12-18T11:52:48;17.00;;;8.82;;
25449;SDS011;13371;52.080;5.624;2022-12-18T11:58:13;16.27;;;7.72;;
25449;SDS011;13371;52.080;5.624;2022-12-18T12:04:29;16.27;;;7.60;;
25449;SDS011;13371;52.080;5.624;2022-12-18T12:11:35;16.02;;;8.20;;
25449;SDS011;13371;52.080;5.624;2022-12-18T12:23:01;17.00;;;8.55;;
25449;SDS011;13371;52.080;5.624;2022-12-18T12:25:44;16.92;;;8.20;;
25449;SDS011;13371;52.080;5.624;2022-12-18T12:39:32;13.75;;;7.40;;
25449;SDS011;13371;52.080;5.624;2022-12-18T12:44:53;15.38;;;7.63;;
25449;SDS011;13371;52.080;5.624;2022-12-18T12:47:25;15.60;;;7.53;;
25449;SDS011;13371;52.080;5.624;2022-12-18T12:49:55;19.50;;;8.13;;
25449;SDS011;13371;52.080;5.624;2022-12-18T12:54:57;16.10;;;8.18;;
25449;SDS011;13371;52.080;5.624;2022-12-18T12:57:30;16.60;;;8.32;;
25449;SDS011;13371;52.080;5.624;2022-12-18T13:00:04;16.15;;;7.90;;
25449;SDS011;13371;52.080;5.624;2022-12-18T13:05:54;15.90;;;8.50;;
25449;SDS011;13371;52.080;5.624;2022-12-18T13:08:34;16.35;;;7.45;;
25449;SDS011;13371;52.080;5.624;2022-12-18T13:11:47;17.45;;;8.80;;
25449;SDS011;13371;52.080;5.624;2022-12-18T13:14:34;14.63;;;7.20;;
25449;SDS011;13371;52.080;5.624;2022-12-18T13:19:49;14.55;;;8.20;;
25449;SDS011;13371;52.080;5.624;2022-12-18T13:22:24;13.55;;;7.50;;
25449;SDS011;13371;52.080;5.624;2022-12-18T13:24:55;16.67;;;8.60;;
25449;SDS011;13371;52.080;5.624;2022-12-18T13:30:33;19.88;;;8.40;;
25449;SDS011;13371;52.080;5.624;2022-12-18T13:38:38;15.65;;;7.90;;
25449;SDS011;13371;52.080;5.624;2022-12-18T13:43:51;16.23;;;7.65;;
25449;SDS011;13371;52.080;5.624;2022-12-18T13:51:39;15.80;;;8.88;;
25449;SDS011;13371;52.080;5.624;2022-12-18T13:54:19;14.18;;;7.72;;
25449;SDS011;13371;52.080;5.624;2022-12-18T13:57:00;15.90;;;8.43;;
25449;SDS011;13371;52.080;5.624;2022-12-18T13:59:33;20.45;;;9.75;;
25449;SDS011;13371;52.080;5.624;2022-12-18T14:02:01;15.63;;;8.15;;
25449;SDS011;13371;52.080;5.624;2022-12-18T14:04:37;17.08;;;8.70;;
25449;SDS011;13371;52.080;5.624;2022-12-18T14:07:04;14.85;;;7.95;;
25449;SDS011;13371;52.080;5.624;2022-12-18T14:09:42;18.23;;;8.80;;
25449;SDS011;13371;52.080;5.624;2022-12-18T14:12:27;16.15;;;8.77;;
25449;SDS011;13371;52.080;5.624;2022-12-18T14:20:24;21.80;;;8.80;;
25449;SDS011;13371;52.080;5.624;2022-12-18T14:22:51;19.65;;;8.05;;
25449;SDS011;13371;52.080;5.624;2022-12-18T14:25:19;16.20;;;8.80;;
25449;SDS011;13371;52.080;5.624;2022-12-18T14:27:49;18.88;;;8.95;;
25449;SDS011;13371;52.080;5.624;2022-12-18T14:30:24;19.10;;;9.60;;
25449;SDS011;13371;52.080;5.624;2022-12-18T14:33:02;19.02;;;9.43;;
25449;SDS011;13371;52.080;5.624;2022-12-18T14:35:35;23.92;;;9.15;;
25449;SDS011;13371;52.080;5.624;2022-12-18T14:40:53;15.73;;;8.63;;
25449;SDS011;13371;52.080;5.624;2022-12-18T14:43:26;18.50;;;9.70;;
25449;SDS011;13371;52.080;5.624;2022-12-18T14:45:54;22.83;;;8.48;;
25449;SDS011;13371;52.080;5.624;2022-12-18T14:48:22;17.55;;;9.93;;
25449;SDS011;13371;52.080;5.624;2022-12-18T14:50:55;19.05;;;9.23;;
25449;SDS011;13371;52.080;5.624;2022-12-18T14:53:34;17.00;;;9.38;;
25449;SDS011;13371;52.080;5.624;2022-12-18T14:56:16;16.48;;;9.27;;
25449;SDS011;13371;52.080;5.624;2022-12-18T14:58:50;22.83;;;9.80;;
25449;SDS011;13371;52.080;5.624;2022-12-18T15:01:26;20.98;;;9.40;;
25449;SDS011;13371;52.080;5.624;2022-12-18T15:03:55;17.05;;;9.23;;
25449;SDS011;13371;52.080;5.624;2022-12-18T15:06:26;22.90;;;9.35;;
25449;SDS011;13371;52.080;5.624;2022-12-18T15:08:53;16.02;;;7.75;;
25449;SDS011;13371;52.080;5.624;2022-12-18T15:11:25;22.80;;;10.88;;
25449;SDS011;13371;52.080;5.624;2022-12-18T15:13:59;20.60;;;9.68;;
25449;SDS011;13371;52.080;5.624;2022-12-18T15:16:49;22.33;;;10.45;;
25449;SDS011;13371;52.080;5.624;2022-12-18T15:19:16;20.83;;;11.10;;
25449;SDS011;13371;52.080;5.624;2022-12-18T15:21:42;17.77;;;9.35;;
25449;SDS011;13371;52.080;5.624;2022-12-18T15:24:15;24.77;;;11.00;;
25449;SDS011;13371;52.080;5.624;2022-12-18T15:26:43;21.02;;;9.90;;
25449;SDS011;13371;52.080;5.624;2022-12-18T15:29:19;23.27;;;11.23;;
25449;SDS011;13371;52.080;5.624;2022-12-18T15:32:02;18.80;;;10.35;;
25449;SDS011;13371;52.080;5.624;2022-12-18T15:34:29;22.13;;;11.07;;
25449;SDS011;13371;52.080;5.624;2022-12-18T15:36:56;20.80;;;9.73;;
25449;SDS011;13371;52.080;5.624;2022-12-18T15:39:21;26.65;;;11.20;;
25449;SDS011;13371;52.080;5.624;2022-12-18T15:41:47;20.15;;;9.70;;
25449;SDS011;13371;52.080;5.624;2022-12-18T15:44:31;18.10;;;9.10;;
25449;SDS011;13371;52.080;5.624;2022-12-18T15:46:57;23.50;;;10.75;;
25449;SDS011;13371;52.080;5.624;2022-12-18T15:49:23;19.13;;;10.10;;
25449;SDS011;13371;52.080;5.624;2022-12-18T15:51:53;24.63;;;10.85;;
25449;SDS011;13371;52.080;5.624;2022-12-18T15:54:21;16.45;;;9.13;;
25449;SDS011;13371;52.080;5.624;2022-12-18T15:57:10;25.58;;;11.10;;
25449;SDS011;13371;52.080;5.624;2022-12-18T15:59:48;23.83;;;10.98;;
25449;SDS011;13371;52.080;5.624;2022-12-18T16:02:16;24.05;;;11.43;;
25449;SDS011;13371;52.080;5.624;2022-12-18T16:04:42;22.33;;;10.20;;
25449;SDS011;13371;52.080;5.624;2022-12-18T16:07:08;24.80;;;10.35;;
25449;SDS011;13371;52.080;5.624;2022-12-18T16:09:34;23.92;;;10.95;;
25449;SDS011;13371;52.080;5.624;2022-12-18T16:12:00;21.10;;;11.77;;
25449;SDS011;13371;52.080;5.624;2022-12-18T16:14:26;25.90;;;12.45;;
25449;SDS011;13371;52.080;5.624;2022-12-18T16:16:58;22.00;;;10.73;;
25449;SDS011;13371;52.080;5.624;2022-12-18T16:19:26;24.75;;;11.65;;
25449;SDS011;13371;52.080;5.624;2022-12-18T16:21:52;26.65;;;11.55;;
25449;SDS011;13371;52.080;5.624;2022-12-18T16:24:24;27.80;;;12.40;;
25449;SDS011;13371;52.080;5.624;2022-12-18T16:26:51;25.52;;;11.48;;
25449;SDS011;13371;52.080;5.624;2022-12-18T16:29:18;28.75;;;13.02;;
25449;SDS011;13371;52.080;5.624;2022-12-18T16:31:52;25.95;;;10.85;;
25449;SDS011;13371;52.080;5.624;2022-12-18T16:34:20;24.27;;;11.35;;